sensor_id;sensor_type;location;lat;lon;timestamp;pressure;altitude;pressure_sealevel;temperature
14851;BMP180;7517;48.400;11.770;2023-06-10T00:01:34;96104.00;;;21.30
14851;BMP180;7517;48.400;11.770;2023-06-10T00:04:05;96098.00;;;21.30
14851;BMP180;7517;48.400;11.770;2023-06-10T00:06:32;96103.00;;;21.30
14851;BMP180;7517;48.400;11.770;2023-06-10T00:09:03;96102.00;;;21.20
14851;BMP180;7517;48.400;11.770;2023-06-10T00:11:34;96105.00;;;21.20
14851;BMP180;7517;48.400;11.770;2023-06-10T00:14:03;96103.00;;;21.20
14851;BMP180;7517;48.400;11.770;2023-06-10T00:16:37;96115.00;;;21.20
14851;BMP180;7517;48.400;11.770;2023-06-10T00:19:06;96106.00;;;21.10
14851;BMP180;7517;48.400;11.770;2023-06-10T00:21:35;96101.00;;;21.10
14851;BMP180;7517;48.400;11.770;2023-06-10T00:24:12;96102.00;;;21.10
14851;BMP180;7517;48.400;11.770;2023-06-10T00:26:42;96111.00;;;21.10
14851;BMP180;7517;48.400;11.770;2023-06-10T00:29:10;96105.00;;;21.10
14851;BMP180;7517;48.400;11.770;2023-06-10T00:31:41;96107.00;;;21.10
14851;BMP180;7517;48.400;11.770;2023-06-10T00:34:15;96101.00;;;21.00
14851;BMP180;7517;48.400;11.770;2023-06-10T00:36:44;96107.00;;;21.00
14851;BMP180;7517;48.400;11.770;2023-06-10T00:39:15;96105.00;;;21.00
14851;BMP180;7517;48.400;11.770;2023-06-10T00:41:44;96090.00;;;21.00
14851;BMP180;7517;48.400;11.770;2023-06-10T00:44:12;96098.00;;;21.00
14851;BMP180;7517;48.400;11.770;2023-06-10T00:46:40;96084.00;;;20.90
14851;BMP180;7517;48.400;11.770;2023-06-10T00:49:11;96083.00;;;21.00
14851;BMP180;7517;48.400;11.770;2023-06-10T00:51:38;96097.00;;;21.00
14851;BMP180;7517;48.400;11.770;2023-06-10T00:54:07;96103.00;;;20.90
14851;BMP180;7517;48.400;11.770;2023-06-10T00:56:36;96097.00;;;20.90
14851;BMP180;7517;48.400;11.770;2023-06-10T00:59:03;96094.00;;;20.90
14851;BMP180;7517;48.400;11.770;2023-06-10T01:01:31;96094.00;;;20.90
14851;BMP180;7517;48.400;11.770;2023-06-10T01:04:01;96089.00;;;20.90
14851;BMP180;7517;48.400;11.770;2023-06-10T01:06:38;96089.00;;;20.80
14851;BMP180;7517;48.400;11.770;2023-06-10T01:09:21;96087.00;;;20.80
14851;BMP180;7517;48.400;11.770;2023-06-10T01:11:58;96086.00;;;20.80
14851;BMP180;7517;48.400;11.770;2023-06-10T01:14:27;96091.00;;;20.80
14851;BMP180;7517;48.400;11.770;2023-06-10T01:16:55;96088.00;;;20.80
14851;BMP180;7517;48.400;11.770;2023-06-10T01:19:24;96091.00;;;20.70
14851;BMP180;7517;48.400;11.770;2023-06-10T01:21:52;96100.00;;;20.70
14851;BMP180;7517;48.400;11.770;2023-06-10T01:24:21;96093.00;;;20.70
14851;BMP180;7517;48.400;11.770;2023-06-10T01:26:51;96091.00;;;20.70
14851;BMP180;7517;48.400;11.770;2023-06-10T01:29:29;96085.00;;;20.60
14851;BMP180;7517;48.400;11.770;2023-06-10T01:32:05;96085.00;;;20.60
14851;BMP180;7517;48.400;11.770;2023-06-10T01:34:35;96098.00;;;20.60
14851;BMP180;7517;48.400;11.770;2023-06-10T01:37:05;96098.00;;;20.60
14851;BMP180;7517;48.400;11.770;2023-06-10T01:39:33;96092.00;;;20.50
14851;BMP180;7517;48.400;11.770;2023-06-10T01:42:01;96097.00;;;20.50
14851;BMP180;7517;48.400;11.770;2023-06-10T01:44:32;96097.00;;;20.50
14851;BMP180;7517;48.400;11.770;2023-06-10T01:47:00;96093.00;;;20.40
14851;BMP180;7517;48.400;11.770;2023-06-10T01:49:27;96103.00;;;20.40
14851;BMP180;7517;48.400;11.770;2023-06-10T01:51:54;96100.00;;;20.40
14851;BMP180;7517;48.400;11.770;2023-06-10T01:54:24;96102.00;;;20.30
14851;BMP180;7517;48.400;11.770;2023-06-10T01:56:53;96105.00;;;20.30
14851;BMP180;7517;48.400;11.770;2023-06-10T01:59:20;96098.00;;;20.30
14851;BMP180;7517;48.400;11.770;2023-06-10T02:01:48;96103.00;;;20.30
14851;BMP180;7517;48.400;11.770;2023-06-10T02:04:15;96097.00;;;20.20
14851;BMP180;7517;48.400;11.770;2023-06-10T02:06:44;96107.00;;;20.20
14851;BMP180;7517;48.400;11.770;2023-06-10T02:09:12;96098.00;;;20.20
14851;BMP180;7517;48.400;11.770;2023-06-10T02:11:41;96089.00;;;20.20
14851;BMP180;7517;48.400;11.770;2023-06-10T02:14:09;96101.00;;;20.20
14851;BMP180;7517;48.400;11.770;2023-06-10T02:16:37;96089.00;;;20.10
14851;BMP180;7517;48.400;11.770;2023-06-10T02:19:05;96096.00;;;20.10
14851;BMP180;7517;48.400;11.770;2023-06-10T02:21:33;96107.00;;;20.10
14851;BMP180;7517;48.400;11.770;2023-06-10T02:24:05;96097.00;;;20.10
14851;BMP180;7517;48.400;11.770;2023-06-10T02:26:32;96098.00;;;20.10
14851;BMP180;7517;48.400;11.770;2023-06-10T02:29:05;96088.00;;;20.00
14851;BMP180;7517;48.400;11.770;2023-06-10T02:31:33;96103.00;;;20.00
14851;BMP180;7517;48.400;11.770;2023-06-10T02:34:03;96107.00;;;20.00
14851;BMP180;7517;48.400;11.770;2023-06-10T02:36:34;96108.00;;;20.00
14851;BMP180;7517;48.400;11.770;2023-06-10T02:39:01;96101.00;;;20.00
14851;BMP180;7517;48.400;11.770;2023-06-10T02:41:30;96112.00;;;20.00
14851;BMP180;7517;48.400;11.770;2023-06-10T02:43:57;96102.00;;;20.00
14851;BMP180;7517;48.400;11.770;2023-06-10T02:46:26;96114.00;;;20.00
14851;BMP180;7517;48.400;11.770;2023-06-10T02:48:54;96112.00;;;20.00
14851;BMP180;7517;48.400;11.770;2023-06-10T02:51:21;96119.00;;;19.90
14851;BMP180;7517;48.400;11.770;2023-06-10T02:53:48;96109.00;;;19.90
14851;BMP180;7517;48.400;11.770;2023-06-10T02:56:17;96107.00;;;19.90
14851;BMP180;7517;48.400;11.770;2023-06-10T02:58:44;96109.00;;;19.80
14851;BMP180;7517;48.400;11.770;2023-06-10T03:01:12;96116.00;;;19.80
14851;BMP180;7517;48.400;11.770;2023-06-10T03:03:41;96106.00;;;19.80
14851;BMP180;7517;48.400;11.770;2023-06-10T03:06:10;96111.00;;;19.80
14851;BMP180;7517;48.400;11.770;2023-06-10T03:08:38;96101.00;;;19.70
14851;BMP180;7517;48.400;11.770;2023-06-10T03:11:06;96108.00;;;19.80
14851;BMP180;7517;48.400;11.770;2023-06-10T03:13:33;96118.00;;;19.80
14851;BMP180;7517;48.400;11.770;2023-06-10T03:16:04;96119.00;;;19.80
14851;BMP180;7517;48.400;11.770;2023-06-10T03:18:31;96106.00;;;19.80
14851;BMP180;7517;48.400;11.770;2023-06-10T03:21:00;96118.00;;;19.80
14851;BMP180;7517;48.400;11.770;2023-06-10T03:23:28;96119.00;;;19.70
14851;BMP180;7517;48.400;11.770;2023-06-10T03:25:56;96121.00;;;19.70
14851;BMP180;7517;48.400;11.770;2023-06-10T03:28:23;96122.00;;;19.80
14851;BMP180;7517;48.400;11.770;2023-06-10T03:30:51;96123.00;;;19.80
14851;BMP180;7517;48.400;11.770;2023-06-10T03:33:18;96125.00;;;19.80
14851;BMP180;7517;48.400;11.770;2023-06-10T03:35:46;96117.00;;;19.80
14851;BMP180;7517;48.400;11.770;2023-06-10T03:38:15;96110.00;;;19.80
14851;BMP180;7517;48.400;11.770;2023-06-10T03:40:42;96115.00;;;19.80
14851;BMP180;7517;48.400;11.770;2023-06-10T03:43:10;96122.00;;;19.80
14851;BMP180;7517;48.400;11.770;2023-06-10T03:45:37;96114.00;;;19.70
14851;BMP180;7517;48.400;11.770;2023-06-10T03:48:06;96135.00;;;19.80
14851;BMP180;7517;48.400;11.770;2023-06-10T03:50:34;96125.00;;;19.70
14851;BMP180;7517;48.400;11.770;2023-06-10T03:53:02;96130.00;;;19.70
14851;BMP180;7517;48.400;11.770;2023-06-10T03:55:31;96128.00;;;19.70
14851;BMP180;7517;48.400;11.770;2023-06-10T03:57:58;96136.00;;;19.70
14851;BMP180;7517;48.400;11.770;2023-06-10T04:00:25;96141.00;;;19.70
14851;BMP180;7517;48.400;11.770;2023-06-10T04:02:52;96143.00;;;19.70
14851;BMP180;7517;48.400;11.770;2023-06-10T04:05:24;96127.00;;;19.60
14851;BMP180;7517;48.400;11.770;2023-06-10T04:07:51;96141.00;;;19.60
14851;BMP180;7517;48.400;11.770;2023-06-10T04:10:18;96136.00;;;19.60
14851;BMP180;7517;48.400;11.770;2023-06-10T04:12:50;96145.00;;;19.60
14851;BMP180;7517;48.400;11.770;2023-06-10T04:15:17;96155.00;;;19.60
14851;BMP180;7517;48.400;11.770;2023-06-10T04:17:44;96153.00;;;19.50
14851;BMP180;7517;48.400;11.770;2023-06-10T04:20:12;96147.00;;;19.50
14851;BMP180;7517;48.400;11.770;2023-06-10T04:22:39;96143.00;;;19.50
14851;BMP180;7517;48.400;11.770;2023-06-10T04:25:09;96150.00;;;19.50
14851;BMP180;7517;48.400;11.770;2023-06-10T04:27:36;96160.00;;;19.50
14851;BMP180;7517;48.400;11.770;2023-06-10T04:30:06;96157.00;;;19.50
14851;BMP180;7517;48.400;11.770;2023-06-10T04:32:34;96158.00;;;19.50
14851;BMP180;7517;48.400;11.770;2023-06-10T04:35:06;96162.00;;;19.50
14851;BMP180;7517;48.400;11.770;2023-06-10T04:37:34;96162.00;;;19.50
14851;BMP180;7517;48.400;11.770;2023-06-10T04:40:01;96159.00;;;19.50
14851;BMP180;7517;48.400;11.770;2023-06-10T04:42:31;96168.00;;;19.50
14851;BMP180;7517;48.400;11.770;2023-06-10T04:44:58;96150.00;;;19.50
14851;BMP180;7517;48.400;11.770;2023-06-10T04:47:27;96162.00;;;19.50
14851;BMP180;7517;48.400;11.770;2023-06-10T04:49:54;96176.00;;;19.50
14851;BMP180;7517;48.400;11.770;2023-06-10T04:52:22;96173.00;;;19.60
14851;BMP180;7517;48.400;11.770;2023-06-10T04:54:50;96165.00;;;19.60
14851;BMP180;7517;48.400;11.770;2023-06-10T04:57:17;96165.00;;;19.60
14851;BMP180;7517;48.400;11.770;2023-06-10T04:59:46;96170.00;;;19.60
14851;BMP180;7517;48.400;11.770;2023-06-10T05:02:13;96161.00;;;19.60
14851;BMP180;7517;48.400;11.770;2023-06-10T05:04:42;96160.00;;;19.60
14851;BMP180;7517;48.400;11.770;2023-06-10T05:07:10;96158.00;;;19.70
14851;BMP180;7517;48.400;11.770;2023-06-10T05:09:37;96169.00;;;19.70
14851;BMP180;7517;48.400;11.770;2023-06-10T05:12:06;96167.00;;;19.80
14851;BMP180;7517;48.400;11.770;2023-06-10T05:14:33;96165.00;;;19.80
14851;BMP180;7517;48.400;11.770;2023-06-10T05:17:00;96166.00;;;19.80
14851;BMP180;7517;48.400;11.770;2023-06-10T05:19:27;96175.00;;;19.80
14851;BMP180;7517;48.400;11.770;2023-06-10T05:21:56;96178.00;;;19.80
14851;BMP180;7517;48.400;11.770;2023-06-10T05:24:23;96178.00;;;19.90
14851;BMP180;7517;48.400;11.770;2023-06-10T05:26:50;96170.00;;;19.90
14851;BMP180;7517;48.400;11.770;2023-06-10T05:29:18;96177.00;;;19.90
14851;BMP180;7517;48.400;11.770;2023-06-10T05:31:45;96185.00;;;19.90
14851;BMP180;7517;48.400;11.770;2023-06-10T05:34:12;96196.00;;;20.00
14851;BMP180;7517;48.400;11.770;2023-06-10T05:36:40;96186.00;;;19.90
14851;BMP180;7517;48.400;11.770;2023-06-10T05:39:09;96192.00;;;20.00
14851;BMP180;7517;48.400;11.770;2023-06-10T05:41:37;96181.00;;;20.00
14851;BMP180;7517;48.400;11.770;2023-06-10T05:44:04;96181.00;;;20.00
14851;BMP180;7517;48.400;11.770;2023-06-10T05:46:31;96184.00;;;20.00
14851;BMP180;7517;48.400;11.770;2023-06-10T05:48:59;96176.00;;;20.10
14851;BMP180;7517;48.400;11.770;2023-06-10T05:51:26;96185.00;;;20.10
14851;BMP180;7517;48.400;11.770;2023-06-10T05:53:54;96162.00;;;20.10
14851;BMP180;7517;48.400;11.770;2023-06-10T05:56:23;96179.00;;;20.20
14851;BMP180;7517;48.400;11.770;2023-06-10T05:58:51;96169.00;;;20.20
14851;BMP180;7517;48.400;11.770;2023-06-10T06:01:19;96182.00;;;20.20
14851;BMP180;7517;48.400;11.770;2023-06-10T06:03:46;96188.00;;;20.30
14851;BMP180;7517;48.400;11.770;2023-06-10T06:06:13;96181.00;;;20.30
14851;BMP180;7517;48.400;11.770;2023-06-10T06:08:41;96189.00;;;20.40
14851;BMP180;7517;48.400;11.770;2023-06-10T06:11:08;96184.00;;;20.40
14851;BMP180;7517;48.400;11.770;2023-06-10T06:13:36;96184.00;;;20.40
14851;BMP180;7517;48.400;11.770;2023-06-10T06:16:04;96194.00;;;20.50
14851;BMP180;7517;48.400;11.770;2023-06-10T06:18:31;96187.00;;;20.50
14851;BMP180;7517;48.400;11.770;2023-06-10T06:20:58;96185.00;;;20.60
14851;BMP180;7517;48.400;11.770;2023-06-10T06:23:26;96185.00;;;20.70
14851;BMP180;7517;48.400;11.770;2023-06-10T06:25:53;96186.00;;;20.70
14851;BMP180;7517;48.400;11.770;2023-06-10T06:28:20;96184.00;;;20.80
14851;BMP180;7517;48.400;11.770;2023-06-10T06:30:50;96188.00;;;20.80
14851;BMP180;7517;48.400;11.770;2023-06-10T06:33:17;96178.00;;;20.90
14851;BMP180;7517;48.400;11.770;2023-06-10T06:35:45;96190.00;;;20.90
14851;BMP180;7517;48.400;11.770;2023-06-10T06:38:12;96192.00;;;21.00
14851;BMP180;7517;48.400;11.770;2023-06-10T06:40:39;96181.00;;;21.10
14851;BMP180;7517;48.400;11.770;2023-06-10T06:43:07;96194.00;;;21.20
14851;BMP180;7517;48.400;11.770;2023-06-10T06:45:34;96184.00;;;21.20
14851;BMP180;7517;48.400;11.770;2023-06-10T06:48:05;96184.00;;;21.30
14851;BMP180;7517;48.400;11.770;2023-06-10T06:50:32;96197.00;;;21.40
14851;BMP180;7517;48.400;11.770;2023-06-10T06:52:59;96188.00;;;21.50
14851;BMP180;7517;48.400;11.770;2023-06-10T06:55:26;96192.00;;;21.50
14851;BMP180;7517;48.400;11.770;2023-06-10T06:57:54;96187.00;;;21.60
14851;BMP180;7517;48.400;11.770;2023-06-10T07:00:21;96198.00;;;21.80
14851;BMP180;7517;48.400;11.770;2023-06-10T07:02:49;96197.00;;;21.90
14851;BMP180;7517;48.400;11.770;2023-06-10T07:05:17;96204.00;;;22.00
14851;BMP180;7517;48.400;11.770;2023-06-10T07:07:45;96194.00;;;22.10
14851;BMP180;7517;48.400;11.770;2023-06-10T07:10:12;96204.00;;;22.30
14851;BMP180;7517;48.400;11.770;2023-06-10T07:12:40;96190.00;;;22.40
14851;BMP180;7517;48.400;11.770;2023-06-10T07:15:08;96206.00;;;22.60
14851;BMP180;7517;48.400;11.770;2023-06-10T07:17:35;96215.00;;;22.70
14851;BMP180;7517;48.400;11.770;2023-06-10T07:20:04;96201.00;;;22.90
14851;BMP180;7517;48.400;11.770;2023-06-10T07:22:33;96203.00;;;23.00
14851;BMP180;7517;48.400;11.770;2023-06-10T07:25:00;96205.00;;;23.20
14851;BMP180;7517;48.400;11.770;2023-06-10T07:27:28;96208.00;;;23.30
14851;BMP180;7517;48.400;11.770;2023-06-10T07:29:55;96207.00;;;23.40
14851;BMP180;7517;48.400;11.770;2023-06-10T07:32:22;96208.00;;;23.60
14851;BMP180;7517;48.400;11.770;2023-06-10T07:34:49;96212.00;;;23.70
14851;BMP180;7517;48.400;11.770;2023-06-10T07:37:16;96216.00;;;23.80
14851;BMP180;7517;48.400;11.770;2023-06-10T07:39:46;96217.00;;;24.00
14851;BMP180;7517;48.400;11.770;2023-06-10T07:42:14;96220.00;;;24.10
14851;BMP180;7517;48.400;11.770;2023-06-10T07:44:45;96230.00;;;24.20
14851;BMP180;7517;48.400;11.770;2023-06-10T07:47:14;96228.00;;;24.40
14851;BMP180;7517;48.400;11.770;2023-06-10T07:49:44;96227.00;;;24.50
14851;BMP180;7517;48.400;11.770;2023-06-10T07:52:28;96223.00;;;24.60
14851;BMP180;7517;48.400;11.770;2023-06-10T07:55:13;96229.00;;;24.80
14851;BMP180;7517;48.400;11.770;2023-06-10T07:57:45;96232.00;;;24.90
14851;BMP180;7517;48.400;11.770;2023-06-10T08:00:23;96231.00;;;25.00
14851;BMP180;7517;48.400;11.770;2023-06-10T08:03:05;96234.00;;;25.10
14851;BMP180;7517;48.400;11.770;2023-06-10T08:05:39;96231.00;;;25.20
14851;BMP180;7517;48.400;11.770;2023-06-10T08:08:11;96237.00;;;25.30
14851;BMP180;7517;48.400;11.770;2023-06-10T08:10:48;96231.00;;;25.50
14851;BMP180;7517;48.400;11.770;2023-06-10T08:13:28;96241.00;;;25.60
14851;BMP180;7517;48.400;11.770;2023-06-10T08:15:57;96238.00;;;25.70
14851;BMP180;7517;48.400;11.770;2023-06-10T08:18:29;96235.00;;;25.80
14851;BMP180;7517;48.400;11.770;2023-06-10T08:23:47;96239.00;;;25.90
14851;BMP180;7517;48.400;11.770;2023-06-10T08:26:16;96244.00;;;25.90
14851;BMP180;7517;48.400;11.770;2023-06-10T08:28:45;96245.00;;;26.00
14851;BMP180;7517;48.400;11.770;2023-06-10T08:31:15;96240.00;;;26.00
14851;BMP180;7517;48.400;11.770;2023-06-10T08:33:43;96244.00;;;26.10
14851;BMP180;7517;48.400;11.770;2023-06-10T08:36:10;96234.00;;;26.20
14851;BMP180;7517;48.400;11.770;2023-06-10T08:38:37;96238.00;;;26.30
14851;BMP180;7517;48.400;11.770;2023-06-10T08:41:06;96237.00;;;26.40
14851;BMP180;7517;48.400;11.770;2023-06-10T08:43:42;96237.00;;;26.50
14851;BMP180;7517;48.400;11.770;2023-06-10T08:46:12;96235.00;;;26.60
14851;BMP180;7517;48.400;11.770;2023-06-10T08:48:43;96240.00;;;26.60
14851;BMP180;7517;48.400;11.770;2023-06-10T08:51:11;96244.00;;;26.70
14851;BMP180;7517;48.400;11.770;2023-06-10T08:53:48;96240.00;;;26.70
14851;BMP180;7517;48.400;11.770;2023-06-10T08:56:17;96239.00;;;26.70
14851;BMP180;7517;48.400;11.770;2023-06-10T08:58:48;96236.00;;;26.70
14851;BMP180;7517;48.400;11.770;2023-06-10T09:01:15;96239.00;;;26.60
14851;BMP180;7517;48.400;11.770;2023-06-10T09:03:44;96246.00;;;26.60
14851;BMP180;7517;48.400;11.770;2023-06-10T09:06:11;96243.00;;;26.70
14851;BMP180;7517;48.400;11.770;2023-06-10T09:08:40;96239.00;;;26.60
14851;BMP180;7517;48.400;11.770;2023-06-10T09:11:08;96234.00;;;26.70
14851;BMP180;7517;48.400;11.770;2023-06-10T09:13:35;96228.00;;;26.70
14851;BMP180;7517;48.400;11.770;2023-06-10T09:16:04;96220.00;;;26.70
14851;BMP180;7517;48.400;11.770;2023-06-10T09:18:31;96233.00;;;26.80
14851;BMP180;7517;48.400;11.770;2023-06-10T09:21:00;96223.00;;;26.90
14851;BMP180;7517;48.400;11.770;2023-06-10T09:23:27;96234.00;;;27.10
14851;BMP180;7517;48.400;11.770;2023-06-10T09:25:58;96230.00;;;27.20
14851;BMP180;7517;48.400;11.770;2023-06-10T09:28:26;96233.00;;;27.40
14851;BMP180;7517;48.400;11.770;2023-06-10T09:31:05;96227.00;;;27.60
14851;BMP180;7517;48.400;11.770;2023-06-10T09:33:37;96236.00;;;27.80
14851;BMP180;7517;48.400;11.770;2023-06-10T09:36:05;96229.00;;;28.00
14851;BMP180;7517;48.400;11.770;2023-06-10T09:38:37;96234.00;;;28.20
14851;BMP180;7517;48.400;11.770;2023-06-10T09:41:05;96242.00;;;28.30
14851;BMP180;7517;48.400;11.770;2023-06-10T09:43:40;96246.00;;;28.30
14851;BMP180;7517;48.400;11.770;2023-06-10T09:46:15;96245.00;;;28.40
14851;BMP180;7517;48.400;11.770;2023-06-10T09:48:44;96244.00;;;28.40
14851;BMP180;7517;48.400;11.770;2023-06-10T09:51:14;96241.00;;;28.40
14851;BMP180;7517;48.400;11.770;2023-06-10T09:53:42;96237.00;;;28.40
14851;BMP180;7517;48.400;11.770;2023-06-10T09:56:10;96243.00;;;28.40
14851;BMP180;7517;48.400;11.770;2023-06-10T09:58:39;96243.00;;;28.50
14851;BMP180;7517;48.400;11.770;2023-06-10T10:01:12;96247.00;;;28.50
14851;BMP180;7517;48.400;11.770;2023-06-10T10:03:44;96249.00;;;28.50
14851;BMP180;7517;48.400;11.770;2023-06-10T10:06:18;96249.00;;;28.50
14851;BMP180;7517;48.400;11.770;2023-06-10T10:08:47;96246.00;;;28.60
14851;BMP180;7517;48.400;11.770;2023-06-10T10:11:20;96246.00;;;28.70
14851;BMP180;7517;48.400;11.770;2023-06-10T10:13:49;96256.00;;;28.80
14851;BMP180;7517;48.400;11.770;2023-06-10T10:16:21;96250.00;;;28.80
14851;BMP180;7517;48.400;11.770;2023-06-10T10:18:55;96251.00;;;28.80
14851;BMP180;7517;48.400;11.770;2023-06-10T10:21:32;96253.00;;;28.90
14851;BMP180;7517;48.400;11.770;2023-06-10T10:24:09;96254.00;;;28.80
14851;BMP180;7517;48.400;11.770;2023-06-10T10:26:41;96249.00;;;28.80
14851;BMP180;7517;48.400;11.770;2023-06-10T10:29:16;96253.00;;;28.80
14851;BMP180;7517;48.400;11.770;2023-06-10T10:31:50;96247.00;;;28.90
14851;BMP180;7517;48.400;11.770;2023-06-10T10:34:25;96248.00;;;28.90
14851;BMP180;7517;48.400;11.770;2023-06-10T10:36:55;96248.00;;;28.90
14851;BMP180;7517;48.400;11.770;2023-06-10T10:39:23;96254.00;;;28.90
14851;BMP180;7517;48.400;11.770;2023-06-10T10:41:55;96255.00;;;28.90
14851;BMP180;7517;48.400;11.770;2023-06-10T10:44:23;96251.00;;;28.90
14851;BMP180;7517;48.400;11.770;2023-06-10T10:46:53;96250.00;;;28.90
14851;BMP180;7517;48.400;11.770;2023-06-10T10:49:24;96254.00;;;28.80
14851;BMP180;7517;48.400;11.770;2023-06-10T10:51:56;96257.00;;;28.70
14851;BMP180;7517;48.400;11.770;2023-06-10T10:54:31;96247.00;;;28.70
14851;BMP180;7517;48.400;11.770;2023-06-10T10:57:16;96252.00;;;28.60
14851;BMP180;7517;48.400;11.770;2023-06-10T10:59:54;96249.00;;;28.50
14851;BMP180;7517;48.400;11.770;2023-06-10T11:02:49;96250.00;;;28.50
14851;BMP180;7517;48.400;11.770;2023-06-10T11:05:35;96242.00;;;28.40
14851;BMP180;7517;48.400;11.770;2023-06-10T11:08:04;96242.00;;;28.40
14851;BMP180;7517;48.400;11.770;2023-06-10T11:10:34;96244.00;;;28.30
14851;BMP180;7517;48.400;11.770;2023-06-10T11:13:07;96248.00;;;28.30
14851;BMP180;7517;48.400;11.770;2023-06-10T11:15:43;96246.00;;;28.30
14851;BMP180;7517;48.400;11.770;2023-06-10T11:18:23;96237.00;;;28.30
14851;BMP180;7517;48.400;11.770;2023-06-10T11:20:59;96239.00;;;28.30
14851;BMP180;7517;48.400;11.770;2023-06-10T11:23:47;96246.00;;;28.30
14851;BMP180;7517;48.400;11.770;2023-06-10T11:26:30;96247.00;;;28.20
14851;BMP180;7517;48.400;11.770;2023-06-10T11:29:04;96246.00;;;28.20
14851;BMP180;7517;48.400;11.770;2023-06-10T11:31:33;96236.00;;;28.10
14851;BMP180;7517;48.400;11.770;2023-06-10T11:34:07;96234.00;;;28.10
14851;BMP180;7517;48.400;11.770;2023-06-10T11:36:38;96234.00;;;28.10
14851;BMP180;7517;48.400;11.770;2023-06-10T11:39:09;96228.00;;;28.10
14851;BMP180;7517;48.400;11.770;2023-06-10T11:41:38;96228.00;;;28.10
14851;BMP180;7517;48.400;11.770;2023-06-10T11:44:09;96234.00;;;28.10
14851;BMP180;7517;48.400;11.770;2023-06-10T11:46:37;96235.00;;;28.10
14851;BMP180;7517;48.400;11.770;2023-06-10T11:49:06;96233.00;;;28.10
14851;BMP180;7517;48.400;11.770;2023-06-10T11:51:36;96231.00;;;28.10
14851;BMP180;7517;48.400;11.770;2023-06-10T11:54:05;96228.00;;;28.10
14851;BMP180;7517;48.400;11.770;2023-06-10T11:56:33;96220.00;;;28.10
14851;BMP180;7517;48.400;11.770;2023-06-10T11:59:02;96219.00;;;28.20
14851;BMP180;7517;48.400;11.770;2023-06-10T12:01:34;96228.00;;;28.20
14851;BMP180;7517;48.400;11.770;2023-06-10T12:04:06;96230.00;;;28.20
14851;BMP180;7517;48.400;11.770;2023-06-10T12:06:41;96233.00;;;28.30
14851;BMP180;7517;48.400;11.770;2023-06-10T12:09:20;96238.00;;;28.20
14851;BMP180;7517;48.400;11.770;2023-06-10T12:11:51;96233.00;;;28.20
14851;BMP180;7517;48.400;11.770;2023-06-10T12:15:00;96239.00;;;28.10
14851;BMP180;7517;48.400;11.770;2023-06-10T12:17:38;96231.00;;;28.10
14851;BMP180;7517;48.400;11.770;2023-06-10T12:20:26;96234.00;;;28.00
14851;BMP180;7517;48.400;11.770;2023-06-10T12:22:53;96237.00;;;27.90
14851;BMP180;7517;48.400;11.770;2023-06-10T12:25:25;96227.00;;;27.90
14851;BMP180;7517;48.400;11.770;2023-06-10T12:27:55;96230.00;;;27.80
14851;BMP180;7517;48.400;11.770;2023-06-10T12:30:25;96233.00;;;27.70
14851;BMP180;7517;48.400;11.770;2023-06-10T12:32:54;96232.00;;;27.70
14851;BMP180;7517;48.400;11.770;2023-06-10T12:35:25;96222.00;;;27.60
14851;BMP180;7517;48.400;11.770;2023-06-10T12:37:57;96219.00;;;27.60
14851;BMP180;7517;48.400;11.770;2023-06-10T12:40:28;96215.00;;;27.50
14851;BMP180;7517;48.400;11.770;2023-06-10T12:42:57;96212.00;;;27.50
14851;BMP180;7517;48.400;11.770;2023-06-10T12:45:29;96205.00;;;27.50
14851;BMP180;7517;48.400;11.770;2023-06-10T12:48:08;96209.00;;;27.50
14851;BMP180;7517;48.400;11.770;2023-06-10T12:50:38;96212.00;;;27.50
14851;BMP180;7517;48.400;11.770;2023-06-10T12:53:07;96208.00;;;27.50
14851;BMP180;7517;48.400;11.770;2023-06-10T12:55:35;96198.00;;;27.50
14851;BMP180;7517;48.400;11.770;2023-06-10T12:58:02;96205.00;;;27.50
14851;BMP180;7517;48.400;11.770;2023-06-10T13:00:33;96201.00;;;27.50
14851;BMP180;7517;48.400;11.770;2023-06-10T13:03:01;96197.00;;;27.50
14851;BMP180;7517;48.400;11.770;2023-06-10T13:05:32;96198.00;;;27.60
14851;BMP180;7517;48.400;11.770;2023-06-10T13:08:01;96201.00;;;27.70
14851;BMP180;7517;48.400;11.770;2023-06-10T13:10:28;96197.00;;;27.70
14851;BMP180;7517;48.400;11.770;2023-06-10T13:12:56;96192.00;;;27.80
14851;BMP180;7517;48.400;11.770;2023-06-10T13:15:23;96204.00;;;27.90
14851;BMP180;7517;48.400;11.770;2023-06-10T13:17:52;96197.00;;;28.00
14851;BMP180;7517;48.400;11.770;2023-06-10T13:20:20;96203.00;;;28.00
14851;BMP180;7517;48.400;11.770;2023-06-10T13:22:47;96196.00;;;28.10
14851;BMP180;7517;48.400;11.770;2023-06-10T13:25:16;96198.00;;;28.10
14851;BMP180;7517;48.400;11.770;2023-06-10T13:27:47;96199.00;;;28.10
14851;BMP180;7517;48.400;11.770;2023-06-10T13:30:14;96194.00;;;28.10
14851;BMP180;7517;48.400;11.770;2023-06-10T13:32:41;96194.00;;;28.10
14851;BMP180;7517;48.400;11.770;2023-06-10T13:35:09;96192.00;;;28.10
14851;BMP180;7517;48.400;11.770;2023-06-10T13:37:36;96189.00;;;28.00
14851;BMP180;7517;48.400;11.770;2023-06-10T13:40:05;96187.00;;;28.00
14851;BMP180;7517;48.400;11.770;2023-06-10T13:42:35;96178.00;;;28.00
14851;BMP180;7517;48.400;11.770;2023-06-10T13:45:03;96182.00;;;28.00
14851;BMP180;7517;48.400;11.770;2023-06-10T13:47:31;96177.00;;;28.00
14851;BMP180;7517;48.400;11.770;2023-06-10T13:49:59;96173.00;;;28.00
14851;BMP180;7517;48.400;11.770;2023-06-10T13:52:26;96182.00;;;28.00
14851;BMP180;7517;48.400;11.770;2023-06-10T13:54:54;96175.00;;;28.00
14851;BMP180;7517;48.400;11.770;2023-06-10T13:57:21;96161.00;;;28.00
14851;BMP180;7517;48.400;11.770;2023-06-10T13:59:50;96162.00;;;28.00
14851;BMP180;7517;48.400;11.770;2023-06-10T14:02:18;96168.00;;;28.10
14851;BMP180;7517;48.400;11.770;2023-06-10T14:04:45;96165.00;;;28.10
14851;BMP180;7517;48.400;11.770;2023-06-10T14:07:13;96166.00;;;28.10
14851;BMP180;7517;48.400;11.770;2023-06-10T14:09:41;96155.00;;;28.20
14851;BMP180;7517;48.400;11.770;2023-06-10T14:12:09;96161.00;;;28.20
14851;BMP180;7517;48.400;11.770;2023-06-10T14:14:37;96166.00;;;28.30
14851;BMP180;7517;48.400;11.770;2023-06-10T14:17:06;96166.00;;;28.40
14851;BMP180;7517;48.400;11.770;2023-06-10T14:19:34;96160.00;;;28.40
14851;BMP180;7517;48.400;11.770;2023-06-10T14:22:01;96166.00;;;28.50
14851;BMP180;7517;48.400;11.770;2023-06-10T14:24:28;96163.00;;;28.50
14851;BMP180;7517;48.400;11.770;2023-06-10T14:26:56;96172.00;;;28.60